Time;durP1;ratioP1;P1;durP2;ratioP2;P2;SDS_P1;SDS_P2;PMS_P1;PMS_P2;Temp;Humidity;BMP_temperature;BMP_pressure;BME280_temperature;BME280_humidity;BME280_pressure;Samples;Min_cycle;Max_cycle;Signal;HPM_P1;HPM_P2
2022/07/01 00:04:45;;;;;;;18.07;12.80;;;;;;;23.18;84.52;100126.38;3691683;78;31620;-85
2022/07/01 00:09:46;;;;;;;15.80;12.90;;;;;;;23.18;84.36;100129.19;3735156;77;99440;-86
2022/07/01 00:14:47;;;;;;;16.45;13.88;;;;;;;23.18;84.76;100121.55;3737843;77;99351;-86
2022/07/01 00:19:50;;;;;;;16.87;13.80;;;;;;;23.18;84.50;100116.55;3739265;76;99046;-84
2022/07/01 00:24:51;;;;;;;18.05;14.53;;;;;;;23.17;84.54;100105.94;3730379;77;99075;-85
2022/07/01 00:29:52;;;;;;;15.32;13.35;;;;;;;23.21;84.36;100118.44;3726892;77;99274;-85
2022/07/01 00:34:53;;;;;;;15.08;13.00;;;;;;;23.20;84.17;100115.45;3731697;77;99159;-86
2022/07/01 00:39:54;;;;;;;15.90;12.53;;;;;;;23.21;83.86;100110.77;3729371;77;98936;-85
2022/07/01 00:44:55;;;;;;;16.12;13.62;;;;;;;23.23;83.60;100106.89;3723888;77;99433;-85
2022/07/01 00:49:57;;;;;;;17.62;14.90;;;;;;;23.25;83.39;100112.01;3733085;77;99200;-85
2022/07/01 00:55:00;;;;;;;17.37;14.45;;;;;;;23.27;83.56;100109.53;3742164;77;99573;-85
2022/07/01 01:00:09;;;;;;;20.10;17.07;;;;;;;23.29;83.75;100107.81;3734373;77;99436;-86
2022/07/01 01:05:10;;;;;;;18.87;15.23;;;;;;;23.31;83.92;100116.53;3733583;77;99198;-85
2022/07/01 01:10:13;;;;;;;22.62;19.00;;;;;;;23.32;84.18;100113.11;3778623;77;99251;-86
2022/07/01 01:15:20;;;;;;;23.10;20.05;;;;;;;23.33;85.40;100107.64;3778007;77;99049;-84
2022/07/01 01:20:22;;;;;;;21.57;17.95;;;;;;;23.36;86.87;100107.48;3749630;77;99031;-84
2022/07/01 01:25:23;;;;;;;23.90;21.30;;;;;;;23.37;86.74;100105.46;3772706;77;99253;-85
2022/07/01 01:30:24;;;;;;;25.30;21.55;;;;;;;23.40;87.62;100101.08;3762690;76;99244;-85
2022/07/01 01:35:25;;;;;;;32.17;26.65;;;;;;;23.42;88.03;100102.78;3767196;77;99432;-84
2022/07/01 01:40:26;;;;;;;31.80;26.35;;;;;;;23.44;89.21;100089.03;3770477;77;99096;-85
2022/07/01 01:45:28;;;;;;;34.73;28.47;;;;;;;23.43;89.05;100100.12;3769941;76;99430;-86
2022/07/01 01:50:29;;;;;;;32.60;29.10;;;;;;;23.44;89.88;100100.91;3757447;77;99120;-85
2022/07/01 01:55:30;;;;;;;32.03;27.62;;;;;;;23.44;90.05;100096.70;3768944;76;99231;-83
2022/07/01 02:00:31;;;;;;;32.78;28.60;;;;;;;23.43;90.17;100102.92;3765940;76;99140;-85
2022/07/01 02:05:35;;;;;;;27.95;24.67;;;;;;;23.44;90.53;100103.08;3762301;77;99173;-85
2022/07/01 02:10:36;;;;;;;30.27;25.97;;;;;;;23.43;90.23;100099.36;3749804;77;99083;-84
2022/07/01 02:15:37;;;;;;;28.65;24.65;;;;;;;23.40;90.14;100098.27;3769492;77;99042;-86
2022/07/01 02:20:38;;;;;;;29.57;22.52;;;;;;;23.37;89.93;100108.27;3768452;76;99018;-85
2022/07/01 02:25:39;;;;;;;23.67;21.15;;;;;;;23.31;89.52;100101.70;3769923;76;99553;-85
2022/07/01 02:30:41;;;;;;;27.67;21.55;;;;;;;23.28;89.11;100097.05;3770619;77;99559;-84
2022/07/01 02:35:42;;;;;;;25.92;20.05;;;;;;;23.22;88.78;100105.30;3770070;76;99201;-85
2022/07/01 02:40:43;;;;;;;22.52;19.55;;;;;;;23.19;88.65;100113.28;3770904;77;98731;-85
2022/07/01 02:45:45;;;;;;;25.65;19.62;;;;;;;23.20;88.78;100109.22;3768313;76;98008;-86
2022/07/01 02:50:45;;;;;;;20.70;18.42;;;;;;;23.20;88.99;100110.63;3759311;77;98957;-85
2022/07/01 02:55:46;;;;;;;28.20;19.23;;;;;;;23.20;89.12;100111.23;3772659;76;98301;-85
2022/07/01 03:00:50;;;;;;;23.83;20.45;;;;;;;23.17;89.17;100110.14;3756103;76;99512;-85
2022/07/01 03:05:51;;;;;;;24.87;21.40;;;;;;;23.13;89.35;100109.52;3774994;76;99698;-85
2022/07/01 03:10:52;;;;;;;25.26;21.80;;;;;;;23.11;89.36;100106.38;3762066;76;99091;-85
2022/07/01 03:15:53;;;;;;;28.80;25.10;;;;;;;23.06;89.20;100112.63;3773270;77;31637;-85
2022/07/01 03:20:54;;;;;;;27.35;23.85;;;;;;;23.01;89.33;100120.30;3766657;76;98982;-85
2022/07/01 03:25:54;;;;;;;29.15;24.18;;;;;;;22.96;89.27;100127.14;3787734;76;99176;-85
2022/07/01 03:30:56;;;;;;;26.75;23.95;;;;;;;22.91;89.42;100127.16;3774953;76;99159;-85
2022/07/01 03:35:57;;;;;;;27.45;23.20;;;;;;;22.87;89.72;100128.53;3768112;77;99188;-85
2022/07/01 03:40:58;;;;;;;27.07;24.18;;;;;;;22.86;89.73;100136.19;3766116;76;99489;-86
2022/07/01 03:45:59;;;;;;;29.18;25.52;;;;;;;22.83;89.88;100139.92;3769074;77;31285;-86
2022/07/01 03:50:59;;;;;;;33.85;27.77;;;;;;;22.83;89.80;100144.77;3757446;77;99023;-85
2022/07/01 03:56:01;;;;;;;28.07;24.05;;;;;;;22.79;90.37;100142.73;3774060;76;99165;-86
2022/07/01 04:01:02;;;;;;;28.12;23.07;;;;;;;22.74;90.38;100140.55;3758248;76;99209;-85
2022/07/01 04:06:03;;;;;;;28.35;24.98;;;;;;;22.75;90.53;100154.72;3784138;76;99441;-85
2022/07/01 04:11:07;;;;;;;28.45;24.30;;;;;;;22.75;90.72;100143.50;3764644;77;99168;-86
2022/07/01 04:16:07;;;;;;;31.52;26.65;;;;;;;22.76;91.06;100138.04;3766767;77;25807;-86
2022/07/01 04:26:28;;;;;;;32.78;25.52;;;;;;;22.70;91.99;100137.89;3767413;77;99433;-85
2022/07/01 04:31:29;;;;;;;29.55;25.32;;;;;;;22.68;92.21;100138.96;3762526;77;99463;-85
2022/07/01 04:36:30;;;;;;;29.10;23.70;;;;;;;22.69;92.58;100142.56;3772458;77;99110;-85
2022/07/01 04:46:51;;;;;;;24.25;21.73;;;;;;;22.89;92.20;100156.29;3767059;77;99225;-87
2022/07/01 04:51:52;;;;;;;28.50;22.32;;;;;;;23.01;91.93;100150.38;3777609;77;34777;-88
2022/07/01 04:56:53;;;;;;;25.68;19.92;;;;;;;23.10;91.54;100141.33;3778362;76;99075;-86
2022/07/01 05:01:54;;;;;;;20.65;17.42;;;;;;;23.19;91.15;100141.97;3771028;76;99154;-86
2022/07/01 05:06:55;;;;;;;24.90;17.77;;;;;;;23.22;90.28;100137.59;3771005;77;99443;-86
2022/07/01 05:11:56;;;;;;;22.62;18.10;;;;;;;23.32;90.35;100131.37;3779514;77;99614;-87
2022/07/01 05:16:57;;;;;;;24.27;18.75;;;;;;;23.33;89.32;100129.47;3768416;77;99299;-86
2022/07/01 05:22:03;;;;;;;19.17;16.65;;;;;;;23.46;88.75;100125.88;3777743;77;35685;-86
2022/07/01 05:27:02;;;;;;;19.05;15.38;;;;;;;23.70;88.68;100118.95;3764855;76;99120;-86
2022/07/01 05:32:03;;;;;;;21.35;14.65;;;;;;;24.07;87.86;100118.34;3771551;76;99166;-86
2022/07/01 05:37:05;;;;;;;20.60;15.30;;;;;;;24.61;87.21;100120.86;3768175;77;99316;-87
2022/07/01 05:42:07;;;;;;;17.87;12.75;;;;;;;25.19;85.93;100113.19;3767094;76;99164;-86
2022/07/01 05:47:09;;;;;;;21.12;13.90;;;;;;;25.85;84.35;100123.62;3763562;77;99231;-86
2022/07/01 05:52:10;;;;;;;18.07;12.53;;;;;;;26.65;83.63;100118.81;3772405;77;25829;-85
2022/07/01 05:57:11;;;;;;;16.57;13.08;;;;;;;27.24;80.77;100127.88;3757226;77;99381;-86
2022/07/01 06:02:13;;;;;;;16.62;12.33;;;;;;;27.99;79.55;100131.17;3780196;76;99165;-85
2022/07/01 06:07:14;;;;;;;18.23;12.28;;;;;;;28.66;77.57;100128.14;3754113;76;99267;-86
2022/07/01 06:12:15;;;;;;;18.50;11.77;;;;;;;29.27;75.94;100132.00;3734927;77;99103;-84
2022/07/01 06:17:17;;;;;;;16.77;12.18;;;;;;;29.75;71.81;100126.27;3737817;77;99221;-86
2022/07/01 06:22:20;;;;;;;17.42;12.93;;;;;;;30.37;70.91;100137.09;3734430;77;34822;-85
2022/07/01 06:27:21;;;;;;;16.67;11.97;;;;;;;30.98;67.73;100141.16;3733958;77;98998;-85
2022/07/01 06:32:22;;;;;;;17.90;11.25;;;;;;;31.40;67.21;100132.95;3739270;77;99504;-85
2022/07/01 06:37:23;;;;;;;19.03;14.83;;;;;;;31.83;64.31;100133.18;3739236;77;99264;-86
2022/07/01 06:42:24;;;;;;;15.58;12.98;;;;;;;32.01;64.56;100126.80;3737579;77;99500;-86
2022/07/01 06:47:25;;;;;;;13.45;11.43;;;;;;;32.23;64.31;100113.13;3732096;77;99159;-86
2022/07/01 06:52:27;;;;;;;17.85;11.12;;;;;;;32.18;62.35;100116.80;3733649;77;26437;-86
2022/07/01 06:57:29;;;;;;;14.15;9.55;;;;;;;31.96;60.76;100116.23;3715034;77;99348;-84
2022/07/01 07:02:30;;;;;;;14.63;9.38;;;;;;;32.08;59.73;100103.44;3746296;76;98849;-85
2022/07/01 07:07:30;;;;;;;13.25;9.40;;;;;;;32.11;57.16;100088.14;3729259;77;98993;-87
2022/07/01 07:12:31;;;;;;;15.25;9.20;;;;;;;32.39;58.44;100080.87;3735683;76;99261;-85
2022/07/01 07:17:33;;;;;;;16.10;9.53;;;;;;;32.79;57.34;100093.39;3732197;77;99024;-83
2022/07/01 07:22:34;;;;;;;14.53;9.25;;;;;;;32.93;55.09;100098.63;3731568;77;26381;-83
2022/07/01 07:27:34;;;;;;;14.68;8.55;;;;;;;33.10;54.84;100093.46;3715090;77;99256;-85
2022/07/01 07:32:35;;;;;;;12.63;9.25;;;;;;;33.41;54.32;100086.29;3752658;76;98798;-84
2022/07/01 07:37:37;;;;;;;12.35;8.25;;;;;;;33.62;52.32;100095.14;3732843;77;99064;-85
2022/07/01 07:42:40;;;;;;;12.30;9.58;;;;;;;33.56;52.36;100091.61;3745854;77;98966;-85
2022/07/01 07:47:48;;;;;;;12.68;8.85;;;;;;;33.57;51.64;100089.53;3741559;77;99035;-83
2022/07/01 07:52:49;;;;;;;14.65;9.80;;;;;;;33.86;51.11;100080.77;3753602;77;98997;-84
2022/07/01 07:57:50;;;;;;;12.35;9.33;;;;;;;34.34;50.74;100066.77;3753042;77;98965;-84
2022/07/01 08:02:51;;;;;;;13.60;9.38;;;;;;;34.54;49.29;100062.58;3747559;77;99079;-85
2022/07/01 08:07:53;;;;;;;14.98;9.75;;;;;;;34.87;49.08;100067.62;3751932;77;99034;-83
2022/07/01 08:12:56;;;;;;;12.95;10.50;;;;;;;35.34;49.28;100077.63;3772957;77;98938;-85
2022/07/01 08:17:57;;;;;;;17.13;11.13;;;;;;;35.72;47.73;100073.84;3763382;77;99154;-85
2022/07/01 08:22:58;;;;;;;14.03;10.20;;;;;;;35.93;46.63;100064.58;3773370;77;99089;-84
2022/07/01 08:27:59;;;;;;;14.38;9.40;;;;;;;36.33;46.98;100061.54;3752405;77;98944;-85
2022/07/01 08:33:01;;;;;;;13.32;10.80;;;;;;;36.75;46.50;100059.30;3749170;77;98849;-85
2022/07/01 08:38:02;;;;;;;19.52;11.22;;;;;;;36.91;44.96;100061.68;3756088;77;99147;-84
2022/07/01 08:43:07;;;;;;;14.28;11.48;;;;;;;37.44;43.63;100063.28;3772585;77;99257;-82
2022/07/01 08:48:08;;;;;;;19.70;10.40;;;;;;;37.97;43.67;100056.23;3756530;76;99263;-83
2022/07/01 08:53:12;;;;;;;13.45;10.18;;;;;;;38.42;42.76;100051.91;3772665;77;99087;-83
2022/07/01 08:58:13;;;;;;;14.20;10.35;;;;;;;38.43;42.96;100046.93;3771407;77;99211;-84
2022/07/01 09:03:14;;;;;;;16.60;11.22;;;;;;;38.62;42.45;100046.58;3779070;77;99177;-86
2022/07/01 09:08:15;;;;;;;15.78;11.48;;;;;;;38.99;41.47;100042.80;3767856;77;99323;-84
2022/07/01 09:13:16;;;;;;;12.93;11.25;;;;;;;39.76;41.06;100041.74;3780488;76;99213;-85
2022/07/01 09:18:20;;;;;;;16.80;11.65;;;;;;;40.28;40.52;100048.50;3780336;76;99355;-85
2022/07/01 09:23:21;;;;;;;11.48;9.95;;;;;;;40.40;39.29;100038.66;3780568;77;99755;-84
2022/07/01 09:28:29;;;;;;;14.20;11.03;;;;;;;40.49;39.24;100037.98;3773160;77;98726;-83
2022/07/01 09:33:29;;;;;;;13.48;11.53;;;;;;;40.75;38.41;100038.06;3771193;76;99397;-84
2022/07/01 09:38:30;;;;;;;17.60;11.43;;;;;;;40.72;38.21;100036.38;3761163;77;99470;-84
2022/07/01 09:43:34;;;;;;;16.30;12.07;;;;;;;40.71;37.98;100039.86;3775098;76;99581;-85
2022/07/01 09:48:40;;;;;;;13.70;11.18;;;;;;;40.27;37.22;100031.09;3766109;77;99324;-84
2022/07/01 09:53:43;;;;;;;13.03;11.00;;;;;;;40.02;37.66;100032.48;3768773;77;99216;-84
2022/07/01 09:58:47;;;;;;;;;;;;;;;40.04;38.03;100034.12;3763295;77;98878;-84
2022/07/01 10:03:49;;;;;;;16.35;11.28;;;;;;;40.42;37.14;100041.03;3764738;77;28350;-84
2022/07/01 10:09:17;;;;;;;15.03;11.38;;;;;;;40.68;37.86;100029.49;3766216;77;99347;-84
2022/07/01 10:14:19;;;;;;;15.65;11.78;;;;;;;40.55;37.11;100033.52;3743548;77;99339;-82
2022/07/01 10:19:26;;;;;;;;;;;;;;;40.58;37.10;100026.54;3734108;77;99469;-84
2022/07/01 10:24:28;;;;;;;19.35;12.85;;;;;;;40.74;36.08;100014.12;3739596;77;85071;-83
2022/07/01 10:29:36;;;;;;;15.65;12.50;;;;;;;41.07;35.94;99998.88;3726420;77;99314;-82
2022/07/01 10:34:40;;;;;;;17.40;11.88;;;;;;;40.92;35.90;99989.64;3737262;77;27441;-84
2022/07/01 10:40:01;;;;;;;16.85;11.53;;;;;;;41.11;37.14;99987.66;3736003;77;99198;-83
2022/07/01 10:45:07;;;;;;;12.73;11.40;;;;;;;41.35;36.79;99983.05;3742637;77;99195;-82
2022/07/01 10:50:16;;;;;;;18.57;12.47;;;;;;;41.65;36.67;99979.00;3731214;77;99140;-83
2022/07/01 10:55:17;;;;;;;18.23;12.50;;;;;;;41.96;36.30;99972.02;3734320;77;99343;-83
2022/07/01 11:00:29;;;;;;;16.30;12.30;;;;;;;41.56;35.52;99972.50;3726391;77;99226;-83
2022/07/01 11:05:30;;;;;;;15.08;12.85;;;;;;;41.96;35.87;99966.98;3741122;77;98981;-83
2022/07/01 11:10:31;;;;;;;18.52;12.33;;;;;;;42.03;34.94;99957.42;3714104;78;98933;-81
2022/07/01 11:15:33;;;;;;;14.47;11.80;;;;;;;41.84;35.80;99950.16;3691493;78;98850;-82
2022/07/01 11:20:34;;;;;;;15.00;11.90;;;;;;;42.17;35.69;99946.94;3714759;78;98804;-83
2022/07/01 11:25:35;;;;;;;16.10;12.50;;;;;;;41.84;35.20;99945.82;3695265;76;98976;-82
2022/07/01 11:30:36;;;;;;;15.90;13.03;;;;;;;42.11;35.03;99939.22;3687348;78;99410;-82
2022/07/01 11:41:01;;;;;;;17.07;12.68;;;;;;;42.48;33.96;99921.80;3686782;78;98999;-82
2022/07/01 11:46:05;;;;;;;14.00;12.03;;;;;;;42.41;34.84;99920.50;3710702;78;27341;-83
2022/07/01 11:51:19;;;;;;;14.93;11.50;;;;;;;41.95;35.05;99904.73;3688708;77;98781;-83
2022/07/01 11:56:39;;;;;;;15.45;11.75;;;;;;;41.91;34.52;99895.02;3701524;78;98735;-83
2022/07/01 12:01:40;;;;;;;15.55;13.35;;;;;;;42.00;34.25;99887.03;3704189;78;99054;-82
2022/07/01 12:06:42;;;;;;;17.55;13.80;;;;;;;42.19;34.10;99874.02;3695757;78;99493;-83
2022/07/01 12:11:51;;;;;;;17.17;13.48;;;;;;;42.01;34.00;99874.83;3720255;77;98930;-83
2022/07/01 12:16:59;;;;;;;14.38;12.15;;;;;;;41.84;34.77;99872.09;3726572;77;99300;-83
2022/07/01 12:22:00;;;;;;;15.15;13.55;;;;;;;41.70;35.19;99863.02;3730873;77;27327;-83
2022/07/01 12:27:05;;;;;;;19.40;14.20;;;;;;;41.84;34.19;99873.55;3734642;77;99166;-83
2022/07/01 12:32:07;;;;;;;18.80;14.20;;;;;;;41.61;33.69;99863.75;3740333;77;99287;-83
2022/07/01 12:37:17;;;;;;;16.35;14.38;;;;;;;41.57;33.94;99856.24;3727514;77;99400;-84
2022/07/01 12:42:37;;;;;;;15.80;13.72;;;;;;;41.41;33.85;99846.33;3736472;77;98960;-84
2022/07/01 12:47:46;;;;;;;21.45;13.68;;;;;;;40.96;34.59;99848.55;3728588;77;99138;-84
2022/07/01 12:53:11;;;;;;;19.87;14.33;;;;;;;40.90;34.66;99848.02;3741762;78;28104;-84
2022/07/01 12:58:19;;;;;;;17.45;13.83;;;;;;;40.80;34.51;99860.97;3725761;77;99070;-84
2022/07/01 13:03:24;;;;;;;16.12;14.53;;;;;;;40.37;34.99;99864.65;3737778;77;99181;-83
2022/07/01 13:08:25;;;;;;;20.55;15.30;;;;;;;40.29;34.95;99866.89;3734965;77;99045;-82
2022/07/01 13:13:26;;;;;;;15.95;14.43;;;;;;;39.80;34.50;99881.49;3738802;77;99377;-83
2022/07/01 13:18:27;;;;;;;18.75;16.52;;;;;;;39.18;35.99;99883.27;3724756;77;98958;-85
2022/07/01 13:23:28;;;;;;;19.82;15.03;;;;;;;39.09;35.93;99882.50;3736911;77;99373;-83
2022/07/01 13:28:29;;;;;;;17.73;15.25;;;;;;;38.69;36.88;99860.91;3736605;77;98694;-85
2022/07/01 13:33:30;;;;;;;18.07;16.02;;;;;;;38.57;37.45;99841.14;3749254;76;98833;-85
2022/07/01 13:38:31;;;;;;;20.10;17.98;;;;;;;38.59;37.28;99834.13;3731264;77;98973;-85
2022/07/01 13:43:33;;;;;;;21.77;16.80;;;;;;;38.09;37.13;99834.66;3737336;77;98949;-82
2022/07/01 13:48:34;;;;;;;21.10;17.60;;;;;;;37.68;37.65;99830.88;3721232;77;99169;-84
2022/07/01 13:53:35;;;;;;;21.23;18.07;;;;;;;37.01;38.76;99840.95;3732761;77;99336;-86
2022/07/01 13:58:36;;;;;;;20.80;18.10;;;;;;;36.36;39.82;99846.09;3724103;77;99104;-86
2022/07/01 14:03:37;;;;;;;22.02;18.40;;;;;;;36.08;40.68;99867.66;3740148;77;99288;-83
2022/07/01 14:08:38;;;;;;;21.30;18.42;;;;;;;35.61;41.44;99867.95;3742867;77;98972;-83
2022/07/01 14:13:40;;;;;;;22.00;19.10;;;;;;;35.17;42.73;99879.16;3776713;77;99017;-83
2022/07/01 14:18:41;;;;;;;20.62;18.40;;;;;;;34.61;43.85;99898.21;3770301;76;99044;-84
2022/07/01 14:23:42;;;;;;;19.48;8.10;;;;;;;34.17;45.17;99957.07;3780737;77;99011;-81
2022/07/01 14:28:43;;;;;;;13.30;5.92;;;;;;;32.65;45.73;100011.91;3782168;76;98636;-83
2022/07/01 14:33:45;;;;;;;10.40;5.83;;;;;;;31.34;47.28;100041.85;3791864;77;98580;-88
2022/07/01 14:38:47;;;;;;;11.22;6.53;;;;;;;30.01;50.68;100020.98;3773381;77;99035;-84
2022/07/01 14:43:48;;;;;;;9.78;6.47;;;;;;;29.27;53.87;99985.34;3781799;77;98930;-83
2022/07/01 14:48:52;;;;;;;12.25;6.97;;;;;;;28.73;55.78;99967.62;3776486;77;98945;-86
2022/07/01 14:53:53;;;;;;;;;;;;;;;28.18;58.13;99935.64;3778101;77;99274;-86
2022/07/01 14:58:54;;;;;;;12.78;7.92;;;;;;;27.93;59.08;99959.21;3764511;76;85035;-85
2022/07/01 15:03:55;;;;;;;11.12;6.87;;;;;;;27.59;59.09;99956.03;3777789;77;34030;-86
2022/07/01 15:08:56;;;;;;;9.78;6.42;;;;;;;27.28;60.09;100000.48;3766376;76;98933;-83
2022/07/01 15:13:57;;;;;;;11.73;6.10;;;;;;;26.99;61.90;100025.52;3771511;76;98774;-87
2022/07/01 15:18:58;;;;;;;9.30;6.35;;;;;;;26.89;62.13;100074.95;3771055;77;99279;-85
2022/07/01 15:23:59;;;;;;;10.23;5.80;;;;;;;26.51;63.18;100110.52;3773920;76;99289;-84
2022/07/01 15:29:00;;;;;;;9.35;4.97;;;;;;;26.07;64.56;100154.23;3786259;76;99623;-83
2022/07/01 15:34:01;;;;;;;9.38;5.47;;;;;;;25.98;65.42;100204.48;3769156;77;32524;-84
2022/07/01 15:39:04;;;;;;;10.23;5.35;;;;;;;26.05;65.77;100221.00;3757102;77;98895;-86
2022/07/01 15:44:06;;;;;;;8.38;5.50;;;;;;;26.15;65.78;100233.74;3776513;77;99279;-85
2022/07/01 15:49:08;;;;;;;9.05;5.67;;;;;;;26.17;65.75;100225.59;3756230;77;98883;-83
2022/07/01 15:54:09;;;;;;;11.68;6.25;;;;;;;26.25;66.09;100252.75;3780643;77;98775;-81
2022/07/01 15:59:10;;;;;;;9.20;5.45;;;;;;;26.23;66.04;100242.59;3765663;77;99213;-84
2022/07/01 16:04:11;;;;;;;10.20;5.80;;;;;;;26.32;66.30;100238.27;3797175;77;32417;-85
2022/07/01 16:09:12;;;;;;;10.23;5.55;;;;;;;26.32;66.08;100236.84;3789211;76;99041;-85
2022/07/01 16:14:18;;;;;;;8.65;5.35;;;;;;;26.38;65.88;100253.23;3778587;76;99114;-85
2022/07/01 16:19:21;;;;;;;10.30;5.22;;;;;;;26.57;65.87;100270.89;3775837;76;98814;-84
2022/07/01 16:24:25;;;;;;;9.45;5.78;;;;;;;26.79;65.76;100284.56;3779233;77;99006;-85
2022/07/01 16:29:26;;;;;;;10.05;6.17;;;;;;;26.93;65.22;100284.53;3757029;76;98988;-85
2022/07/01 16:34:27;;;;;;;8.65;5.72;;;;;;;27.05;65.34;100279.18;3782937;77;27445;-85
2022/07/01 16:39:30;;;;;;;9.73;5.55;;;;;;;27.14;64.97;100286.09;3761870;76;98772;-86
2022/07/01 16:44:45;;;;;;;8.23;5.22;;;;;;;27.21;64.62;100269.39;3787286;75;98475;-84
2022/07/01 16:49:49;;;;;;;9.43;4.67;;;;;;;27.09;64.58;100260.60;3763338;77;98614;-81
2022/07/01 16:55:00;;;;;;;7.90;4.97;;;;;;;26.86;65.32;100284.93;3784367;77;98019;-85
2022/07/01 17:00:04;;;;;;;10.98;5.08;;;;;;;26.50;66.91;100246.49;3772964;77;98537;-84
2022/07/01 17:05:06;;;;;;;7.73;4.53;;;;;;;26.05;67.09;100236.52;3777163;77;98961;-85
2022/07/01 17:10:11;;;;;;;9.53;4.53;;;;;;;26.05;67.09;100236.52;3774504;77;98599;-86
2022/07/01 17:15:13;;;;;;;8.03;4.63;;;;;;;25.98;66.91;100258.06;3762105;77;98556;-84
2022/07/01 17:20:15;;;;;;;7.60;4.05;;;;;;;25.93;66.81;100253.75;3765506;76;98714;-85
2022/07/01 17:25:48;;;;;;;6.67;3.90;;;;;;;25.74;67.04;100261.58;3736639;77;99042;-86
2022/07/01 17:31:13;;;;;;;7.10;3.60;;;;;;;25.38;66.86;100263.30;3722432;77;99252;-84
2022/07/01 17:36:22;;;;;;;7.22;4.00;;;;;;;24.81;68.01;100248.33;3738369;77;98859;-86
2022/07/01 17:41:36;;;;;;;7.97;3.95;;;;;;;24.54;68.95;100216.87;3753926;77;99125;-88
2022/07/01 17:46:50;;;;;;;10.45;3.90;;;;;;;24.56;69.75;100203.71;3755307;76;98598;-85
2022/07/01 17:51:48;;;;;;;6.80;3.85;;;;;;;24.53;69.62;100204.03;3747346;77;98857;-84
2022/07/01 17:56:50;;;;;;;7.42;3.92;;;;;;;24.52;69.88;100212.33;3722945;77;98762;-86
2022/07/01 18:01:52;;;;;;;6.42;3.90;;;;;;;24.48;69.72;100214.56;3726782;77;98791;-86
2022/07/01 18:06:53;;;;;;;7.95;3.80;;;;;;;24.38;69.70;100246.80;3736509;77;98985;-85
2022/07/01 18:12:22;;;;;;;6.20;3.92;;;;;;;24.38;70.07;100283.98;3744335;77;98824;-86
2022/07/01 18:17:47;;;;;;;8.25;4.47;;;;;;;24.40;70.26;100316.64;3767194;76;98820;-89
2022/07/01 18:23:06;;;;;;;9.15;4.67;;;;;;;24.26;71.21;100364.48;3776317;77;27446;-85
2022/07/01 18:28:14;;;;;;;8.33;5.10;;;;;;;24.28;71.34;100411.84;3767958;77;98922;-86
2022/07/01 18:33:22;;;;;;;10.68;5.92;;;;;;;24.17;71.53;100449.51;3776971;76;99049;-86
2022/07/01 18:38:24;;;;;;;9.70;5.05;;;;;;;24.12;71.93;100479.66;3782642;76;99296;-84
2022/07/01 18:43:25;;;;;;;9.98;5.55;;;;;;;24.03;72.01;100495.13;3784765;76;98738;-84
2022/07/01 18:48:26;;;;;;;8.68;5.45;;;;;;;23.93;72.47;100516.80;3775930;77;98470;-82
2022/07/01 18:53:30;;;;;;;9.25;5.58;;;;;;;23.90;72.95;100527.59;3777005;76;98357;-83
2022/07/01 18:58:31;;;;;;;10.28;4.97;;;;;;;23.87;73.12;100527.72;3774956;77;98375;-83
2022/07/01 19:03:34;;;;;;;9.80;5.30;;;;;;;23.80;73.57;100539.23;3767921;77;99124;-83
2022/07/01 19:08:36;;;;;;;10.50;5.50;;;;;;;23.76;73.92;100547.05;3773765;77;99118;-85
2022/07/01 19:13:37;;;;;;;9.40;6.03;;;;;;;23.71;73.98;100556.84;3771422;76;99310;-85
2022/07/01 19:18:38;;;;;;;10.00;5.62;;;;;;;23.67;74.17;100574.50;3774488;77;99029;-84
2022/07/01 19:23:39;;;;;;;17.82;6.58;;;;;;;23.59;74.58;100572.44;3802220;77;99020;-84
2022/07/01 19:28:40;;;;;;;10.20;6.60;;;;;;;23.54;75.03;100578.66;3762178;77;99205;-87
2022/07/01 19:33:41;;;;;;;10.60;5.75;;;;;;;23.53;75.50;100589.70;3791195;76;99301;-85
2022/07/01 19:38:42;;;;;;;9.00;5.80;;;;;;;23.41;76.01;100600.42;3779458;77;98953;-84
2022/07/01 19:43:43;;;;;;;7.83;5.10;;;;;;;23.33;76.68;100618.16;3783357;76;99261;-84
2022/07/01 19:48:44;;;;;;;6.78;4.22;;;;;;;23.22;77.00;100623.40;3772147;77;98450;-85
2022/07/01 19:53:47;;;;;;;6.45;3.90;;;;;;;22.92;77.67;100636.73;3777048;77;98754;-84
2022/07/01 19:58:48;;;;;;;5.05;2.72;;;;;;;22.74;78.54;100636.59;3766062;77;98445;-84
2022/07/01 20:03:51;;;;;;;5.85;3.30;;;;;;;22.36;78.91;100651.30;3706248;78;32479;-84
2022/07/01 20:08:52;;;;;;;7.33;4.17;;;;;;;22.17;79.57;100654.36;3663668;79;98715;-84
2022/07/01 20:13:56;;;;;;;7.20;4.25;;;;;;;21.97;79.98;100668.58;3654222;79;98883;-87
2022/07/01 20:18:57;;;;;;;8.75;4.30;;;;;;;21.58;80.93;100676.61;3764001;76;98821;-86
2022/07/01 20:23:58;;;;;;;8.15;4.12;;;;;;;21.35;82.22;100691.67;3771535;76;98355;-88
2022/07/01 20:28:59;;;;;;;5.50;3.60;;;;;;;21.16;82.91;100694.63;3772784;77;99190;-87
2022/07/01 20:34:00;;;;;;;5.97;3.47;;;;;;;20.82;83.74;100683.14;3790091;77;32433;-85
2022/07/01 20:39:02;;;;;;;4.87;3.05;;;;;;;20.53;84.75;100665.52;3771811;77;98791;-86
2022/07/01 20:44:05;;;;;;;6.92;3.90;;;;;;;20.50;85.40;100671.36;3759690;76;98959;-87
2022/07/01 20:49:06;;;;;;;4.53;3.05;;;;;;;20.35;86.01;100671.57;3750284;77;98889;-85
2022/07/01 20:54:07;;;;;;;5.78;3.83;;;;;;;20.27;87.46;100672.95;3765204;76;98148;-86
2022/07/01 20:59:08;;;;;;;5.65;3.60;;;;;;;20.26;87.90;100669.99;3752231;77;98853;-88
2022/07/01 21:04:10;;;;;;;8.50;3.90;;;;;;;20.25;87.37;100674.02;3768566;77;32444;-87
2022/07/01 21:09:11;;;;;;;7.53;4.25;;;;;;;20.02;87.87;100689.52;3760152;77;99044;-86
2022/07/01 21:14:13;;;;;;;8.40;4.45;;;;;;;19.89;88.17;100703.97;3768341;77;98242;-86
2022/07/01 21:19:14;;;;;;;5.62;3.52;;;;;;;19.74;88.79;100699.94;3772492;76;98844;-89
2022/07/01 21:24:15;;;;;;;5.47;3.30;;;;;;;19.52;89.37;100693.20;3783199;76;98281;-87
2022/07/01 21:29:16;;;;;;;6.47;3.30;;;;;;;19.36;89.82;100704.93;3770334;77;98404;-86
2022/07/01 21:34:17;;;;;;;6.95;3.33;;;;;;;19.23;90.74;100710.36;3773438;77;32410;-88
2022/07/01 21:39:18;;;;;;;7.25;4.00;;;;;;;19.17;91.23;100722.41;3769400;76;98933;-91
2022/07/01 21:44:20;;;;;;;9.90;3.60;;;;;;;19.09;91.99;100714.00;3773953;77;97618;-89
2022/07/01 21:49:22;;;;;;;6.65;3.47;;;;;;;19.03;92.58;100718.50;3765433;77;98843;-88
2022/07/01 21:54:30;;;;;;;8.33;3.45;;;;;;;18.92;93.05;100725.66;3774997;76;99448;-86
2022/07/01 21:59:38;;;;;;;4.80;2.42;;;;;;;18.88;93.62;100727.75;3773780;76;98817;-86
2022/07/01 22:04:41;;;;;;;4.22;2.40;;;;;;;18.73;93.80;100742.34;3785417;77;26582;-86
2022/07/01 22:09:46;;;;;;;7.83;2.20;;;;;;;18.61;94.58;100739.57;3777300;76;98880;-87
2022/07/01 22:14:53;;;;;;;5.08;2.12;;;;;;;18.65;94.87;100754.22;3733680;76;98851;-87
2022/07/01 22:19:57;;;;;;;3.60;2.42;;;;;;;18.61;95.85;100742.36;3714227;78;98781;-90
2022/07/01 22:25:01;;;;;;;4.97;2.95;;;;;;;18.70;95.03;100759.31;3729910;78;97883;-90
2022/07/01 22:30:11;;;;;;;5.10;2.17;;;;;;;18.58;95.03;100789.19;3723123;78;98478;-87
2022/07/01 22:35:14;;;;;;;3.55;2.12;;;;;;;18.50;95.55;100792.51;3715229;79;98937;-90
2022/07/01 22:40:24;;;;;;;3.50;1.87;;;;;;;18.47;96.48;100810.09;3688446;79;97982;-88
2022/07/01 22:45:44;;;;;;;;;;;;;;;;;;;;;
2022/07/01 22:50:45;;;;;;;3.08;2.00;;;;;;;18.40;96.06;100832.47;3573950;80;98981;-87
2022/07/01 22:56:00;;;;;;;2.87;1.87;;;;;;;18.42;96.24;100826.66;3628252;76;32465;-88
2022/07/01 23:01:04;;;;;;;3.62;2.17;;;;;;;18.44;96.27;100828.45;3593273;80;99019;-92
2022/07/01 23:06:09;;;;;;;4.80;2.15;;;;;;;18.33;97.62;100825.02;3595198;81;98413;-87
2022/07/01 23:11:21;;;;;;;2.98;2.10;;;;;;;18.26;96.43;100834.05;3585108;78;98817;-86
2022/07/01 23:16:27;;;;;;;5.67;1.98;;;;;;;18.22;96.24;100815.19;3619280;81;32427;-84
2022/07/01 23:21:29;;;;;;;2.52;1.70;;;;;;;18.38;96.38;100805.05;3718635;78;98131;-87
2022/07/01 23:26:31;;;;;;;4.97;1.90;;;;;;;18.49;96.36;100802.09;3710746;78;98639;-95
2022/07/01 23:31:36;;;;;;;4.10;2.02;;;;;;;18.55;95.54;100807.38;3716904;78;98811;-88
2022/07/01 23:36:40;;;;;;;9.15;1.62;;;;;;;18.43;94.94;100801.76;3719695;78;98611;-88